createdAt,value
2022-10-04T00:00:59.496Z,5.77
2022-10-04T00:03:28.823Z,10.87
2022-10-04T00:05:58.328Z,4.40
2022-10-04T00:08:28.561Z,6.30
2022-10-04T00:11:03.731Z,5.27
2022-10-04T00:13:31.557Z,4.77
2022-10-04T00:16:01.029Z,6.83
2022-10-04T00:18:31.893Z,5.47
2022-10-04T00:21:01.778Z,8.40
2022-10-04T00:23:31.410Z,7.47
2022-10-04T00:25:59.776Z,7.00
2022-10-04T00:28:49.612Z,6.40
2022-10-04T00:31:20.485Z,5.33
2022-10-04T00:33:49.324Z,6.80
2022-10-04T00:36:47.406Z,5.67
2022-10-04T00:39:19.039Z,3.77
2022-10-04T00:41:54.090Z,3.70
2022-10-04T00:44:23.504Z,3.73
2022-10-04T00:46:53.336Z,4.03
2022-10-04T00:49:22.370Z,3.77
2022-10-04T00:51:53.292Z,4.00
2022-10-04T00:54:23.374Z,4.03
2022-10-04T00:56:53.539Z,3.33
2022-10-04T00:59:25.799Z,4.10
2022-10-04T01:01:57.615Z,2.70
2022-10-04T01:04:28.981Z,3.70
2022-10-04T01:06:58.867Z,3.43
2022-10-04T01:09:26.659Z,3.40
2022-10-04T01:11:58.965Z,3.17
2022-10-04T01:14:31.625Z,3.20
2022-10-04T01:17:00.841Z,3.70
2022-10-04T01:19:31.361Z,3.23
2022-10-04T01:22:00.702Z,4.50
2022-10-04T01:24:34.631Z,3.63
2022-10-04T01:27:02.748Z,3.80
2022-10-04T01:29:31.128Z,3.80
2022-10-04T01:32:00.006Z,3.63
2022-10-04T01:34:28.416Z,3.43
2022-10-04T01:36:57.310Z,3.87
2022-10-04T01:39:26.164Z,3.00
2022-10-04T01:41:57.742Z,3.60
2022-10-04T01:44:28.895Z,4.03
2022-10-04T01:46:57.506Z,3.63
2022-10-04T01:49:34.169Z,4.10
2022-10-04T01:52:03.187Z,3.40
2022-10-04T01:54:34.809Z,3.87
2022-10-04T01:57:07.754Z,4.30
2022-10-04T01:59:39.975Z,3.43
2022-10-04T02:02:10.274Z,3.10
2022-10-04T02:04:39.519Z,3.93
2022-10-04T02:07:13.006Z,3.57
2022-10-04T02:09:43.580Z,3.77
2022-10-04T02:12:15.787Z,3.50
2022-10-04T02:14:44.826Z,3.63
2022-10-04T02:17:12.993Z,3.40
2022-10-04T02:19:42.255Z,3.70
2022-10-04T02:22:11.988Z,3.73
2022-10-04T02:24:41.735Z,3.40
2022-10-04T02:27:09.975Z,4.60
2022-10-04T02:29:38.856Z,3.93
2022-10-04T02:32:24.902Z,3.10
2022-10-04T02:34:53.010Z,4.07
2022-10-04T02:37:22.355Z,2.83
2022-10-04T02:39:54.173Z,3.90
2022-10-04T02:42:23.107Z,2.70
2022-10-04T02:44:55.318Z,3.37
2022-10-04T02:47:24.860Z,3.00
2022-10-04T02:49:53.408Z,2.83
2022-10-04T02:52:25.083Z,3.70
2022-10-04T02:54:55.865Z,3.17
2022-10-04T02:57:24.735Z,3.30
2022-10-04T03:00:02.743Z,3.73
2022-10-04T03:02:31.507Z,3.23
2022-10-04T03:05:01.054Z,3.13
2022-10-04T03:07:28.782Z,3.90
2022-10-04T03:09:56.356Z,3.70
2022-10-04T03:12:24.181Z,3.40
2022-10-04T03:14:54.722Z,4.00
2022-10-04T03:17:22.933Z,4.13
2022-10-04T03:19:50.610Z,4.20
2022-10-04T03:22:19.396Z,3.50
2022-10-04T03:24:48.132Z,4.20
2022-10-04T03:27:17.707Z,4.53
2022-10-04T03:29:45.795Z,4.07
2022-10-04T03:32:16.729Z,4.67
2022-10-04T03:34:49.799Z,4.23
2022-10-04T03:37:19.232Z,4.33
2022-10-04T03:39:48.010Z,4.13
2022-10-04T03:42:17.622Z,4.53
2022-10-04T03:44:46.308Z,4.83
2022-10-04T03:47:17.988Z,4.80
2022-10-04T03:49:50.548Z,4.77
2022-10-04T03:52:21.228Z,4.73
2022-10-04T03:54:49.698Z,4.80
2022-10-04T03:57:17.251Z,4.20
2022-10-04T03:59:45.415Z,5.17
2022-10-04T04:02:17.134Z,4.60
2022-10-04T04:04:50.783Z,4.50
2022-10-04T04:07:21.959Z,5.23
2022-10-04T04:09:53.612Z,5.10
2022-10-04T04:12:22.674Z,4.30
2022-10-04T04:14:51.358Z,5.50
2022-10-04T04:17:35.925Z,4.70
2022-10-04T04:20:07.721Z,4.63
2022-10-04T04:23:00.495Z,4.40
2022-10-04T04:25:29.683Z,4.10
2022-10-04T04:28:02.313Z,4.77
2022-10-04T04:30:30.449Z,3.30
2022-10-04T04:33:04.484Z,3.50
2022-10-04T04:35:32.797Z,3.70
2022-10-04T04:38:04.440Z,3.97
2022-10-04T04:40:32.679Z,4.20
2022-10-04T04:43:01.027Z,3.40
2022-10-04T04:45:30.846Z,3.77
2022-10-04T04:48:01.122Z,3.73
2022-10-04T04:50:31.162Z,3.70
2022-10-04T04:53:00.667Z,3.43
2022-10-04T04:55:36.752Z,3.93
2022-10-04T04:58:19.234Z,5.17
2022-10-04T05:00:49.356Z,4.27
2022-10-04T05:03:38.294Z,4.03
2022-10-04T05:06:20.282Z,3.90
2022-10-04T05:08:50.171Z,3.60
2022-10-04T05:11:20.191Z,4.50
2022-10-04T05:13:50.044Z,4.30
2022-10-04T05:16:20.143Z,4.10
2022-10-04T05:18:49.251Z,4.80
2022-10-04T05:21:20.659Z,5.50
2022-10-04T05:23:48.312Z,4.40
2022-10-04T05:26:15.869Z,4.63
2022-10-04T05:28:43.645Z,4.50
2022-10-04T05:31:24.232Z,4.50
2022-10-04T05:33:57.399Z,5.00
2022-10-04T05:36:32.412Z,4.13
2022-10-04T05:39:03.837Z,3.97
2022-10-04T05:41:33.778Z,3.80
2022-10-04T05:44:03.335Z,3.60
2022-10-04T05:46:32.130Z,3.30
2022-10-04T05:49:04.188Z,3.20
2022-10-04T05:51:34.196Z,3.90
2022-10-04T05:54:02.830Z,3.60
2022-10-04T05:56:42.525Z,3.27
2022-10-04T05:59:17.321Z,3.67
2022-10-04T06:01:49.228Z,3.63
2022-10-04T06:04:29.478Z,3.80
2022-10-04T06:07:01.147Z,3.50
2022-10-04T06:09:37.957Z,3.63
2022-10-04T06:12:09.388Z,4.33
2022-10-04T06:14:55.344Z,3.80
2022-10-04T06:17:29.465Z,4.03
2022-10-04T06:20:20.905Z,3.70
2022-10-04T06:22:53.643Z,4.40
2022-10-04T06:25:23.643Z,4.00
2022-10-04T06:27:54.877Z,4.00
2022-10-04T06:30:22.543Z,4.07
2022-10-04T06:32:59.779Z,4.10
2022-10-04T06:35:36.628Z,3.43
2022-10-04T06:38:13.361Z,3.07
2022-10-04T06:40:45.900Z,3.20
2022-10-04T06:43:23.403Z,2.70
2022-10-04T06:45:56.947Z,3.27
2022-10-04T06:48:43.913Z,3.50
2022-10-04T06:51:16.722Z,3.67
2022-10-04T06:53:52.698Z,4.67
2022-10-04T06:56:26.797Z,4.00
2022-10-04T06:59:20.052Z,3.83
2022-10-04T07:01:50.038Z,4.40
2022-10-04T07:04:25.268Z,4.33
2022-10-04T07:07:23.744Z,4.00
2022-10-04T07:09:53.484Z,4.23
2022-10-04T07:12:21.139Z,4.50
2022-10-04T07:14:51.256Z,4.40
2022-10-04T07:17:23.209Z,4.87
2022-10-04T07:19:51.739Z,4.17
2022-10-04T07:22:23.486Z,4.43
2022-10-04T07:25:01.371Z,5.47
2022-10-04T07:27:33.163Z,5.20
2022-10-04T07:30:02.172Z,4.73
2022-10-04T07:32:31.591Z,4.97
2022-10-04T07:35:03.125Z,4.23
2022-10-04T07:37:56.027Z,5.73
2022-10-04T07:40:26.905Z,4.53
2022-10-04T07:42:59.872Z,5.07
2022-10-04T07:45:30.379Z,4.93
2022-10-04T07:48:03.521Z,3.80
2022-10-04T07:50:34.463Z,4.67
2022-10-04T07:53:08.588Z,4.63
2022-10-04T07:55:46.328Z,4.20
2022-10-04T07:58:23.896Z,4.60
2022-10-04T08:00:56.041Z,4.70
2022-10-04T08:03:31.834Z,5.00
2022-10-04T08:06:02.039Z,4.93
2022-10-04T08:08:36.845Z,5.10
2022-10-04T08:11:17.448Z,4.93
2022-10-04T08:13:51.742Z,4.57
2022-10-04T08:16:25.306Z,5.53
2022-10-04T08:19:00.644Z,5.13
2022-10-04T08:21:32.972Z,5.13
2022-10-04T08:24:05.972Z,5.60
2022-10-04T08:26:51.029Z,5.30
2022-10-04T08:29:44.308Z,5.67
2022-10-04T08:32:23.399Z,5.37
2022-10-04T08:34:58.907Z,5.93
2022-10-04T08:37:34.026Z,5.30
2022-10-04T08:40:16.553Z,5.90
2022-10-04T08:42:57.765Z,6.00
2022-10-04T08:45:39.186Z,5.83
2022-10-04T08:48:40.163Z,6.00
2022-10-04T08:51:26.323Z,6.13
2022-10-04T08:54:18.075Z,5.63
2022-10-04T08:57:06.543Z,6.10
2022-10-04T08:59:48.983Z,6.10
2022-10-04T09:02:23.820Z,5.60
2022-10-04T09:05:09.593Z,4.50
2022-10-04T09:07:49.660Z,5.50
2022-10-04T09:10:29.278Z,5.00
2022-10-04T09:13:02.656Z,5.17
2022-10-04T09:15:40.471Z,4.70
2022-10-04T09:18:21.517Z,4.63
2022-10-04T09:20:55.326Z,4.40
2022-10-04T09:23:39.074Z,4.13
2022-10-04T09:26:13.667Z,4.37
2022-10-04T09:29:04.774Z,4.13
2022-10-04T09:31:50.782Z,3.80
2022-10-04T09:34:37.632Z,4.77
2022-10-04T09:37:12.795Z,4.30
2022-10-04T09:39:46.554Z,3.77
2022-10-04T09:42:35.708Z,3.60
2022-10-04T09:45:27.531Z,3.47
2022-10-04T09:48:07.867Z,3.57
2022-10-04T09:50:41.881Z,3.30
2022-10-04T09:53:21.393Z,2.80
2022-10-04T09:56:05.235Z,2.93
2022-10-04T09:58:43.347Z,3.20
2022-10-04T10:01:16.872Z,2.17
2022-10-04T10:03:58.767Z,2.43
2022-10-04T10:06:35.105Z,2.60
2022-10-04T10:09:19.392Z,3.13
2022-10-04T10:12:12.320Z,2.60
2022-10-04T10:15:01.055Z,2.27
2022-10-04T10:17:38.059Z,2.73
2022-10-04T10:20:17.252Z,2.00
2022-10-04T10:22:58.290Z,2.40
2022-10-04T10:25:37.847Z,3.43
2022-10-04T10:28:24.161Z,5.37
2022-10-04T10:31:05.832Z,3.50
2022-10-04T10:33:38.579Z,3.00
2022-10-04T10:36:21.363Z,3.57
2022-10-04T10:38:55.238Z,3.20
2022-10-04T10:41:32.445Z,2.93
2022-10-04T10:44:29.186Z,2.80
2022-10-04T10:47:01.482Z,3.20
2022-10-04T10:49:42.080Z,3.40
2022-10-04T10:52:25.870Z,3.23
2022-10-04T10:55:08.456Z,3.00
2022-10-04T10:57:49.691Z,3.80
2022-10-04T11:00:22.305Z,3.30
2022-10-04T11:03:13.246Z,5.43
2022-10-04T11:06:00.290Z,5.70
2022-10-04T11:08:59.158Z,4.43
2022-10-04T11:11:39.345Z,4.00
2022-10-04T11:14:14.599Z,3.10
2022-10-04T11:16:56.816Z,4.23
2022-10-04T11:19:47.475Z,6.23
2022-10-04T11:22:25.243Z,11.97
2022-10-04T11:25:06.458Z,6.80
2022-10-04T11:27:47.833Z,5.77
2022-10-04T11:30:20.909Z,16.70
2022-10-04T11:33:01.163Z,5.40
2022-10-04T11:35:50.554Z,4.93
2022-10-04T11:38:27.478Z,3.17
2022-10-04T11:41:08.011Z,3.70
2022-10-04T11:43:47.704Z,5.83
2022-10-04T11:46:38.175Z,4.70
2022-10-04T11:49:15.083Z,3.23
2022-10-04T11:52:02.060Z,4.20
2022-10-04T11:54:54.606Z,3.90
2022-10-04T11:57:28.631Z,3.10
2022-10-04T12:00:01.127Z,2.67
2022-10-04T12:02:58.574Z,2.80
2022-10-04T12:05:41.726Z,3.40
2022-10-04T12:08:19.506Z,2.40
2022-10-04T12:10:52.835Z,2.83
2022-10-04T12:13:47.580Z,2.80
2022-10-04T12:16:36.326Z,3.60
2022-10-04T12:19:25.509Z,3.07
2022-10-04T12:21:59.096Z,4.00
2022-10-04T12:24:41.872Z,3.50
2022-10-04T12:27:15.735Z,3.00
2022-10-04T12:30:11.021Z,2.70
2022-10-04T12:32:43.846Z,3.13
2022-10-04T12:35:24.345Z,3.20
2022-10-04T12:38:07.881Z,2.83
2022-10-04T12:40:37.969Z,2.50
2022-10-04T12:43:09.978Z,2.70
2022-10-04T12:45:48.299Z,3.13
2022-10-04T12:48:23.843Z,2.53
2022-10-04T12:50:55.030Z,2.30
2022-10-04T12:53:31.819Z,5.27
2022-10-04T12:56:06.578Z,2.87
2022-10-04T12:58:41.403Z,3.00
2022-10-04T13:01:12.361Z,2.73
2022-10-04T13:03:59.394Z,3.17
2022-10-04T13:06:38.911Z,5.57
2022-10-04T13:09:13.924Z,2.70
2022-10-04T13:11:50.244Z,2.50
2022-10-04T13:14:45.024Z,2.60
2022-10-04T13:17:31.168Z,2.30
2022-10-04T13:20:17.140Z,2.60
2022-10-04T13:22:58.176Z,2.43
2022-10-04T13:25:45.119Z,2.77
2022-10-04T13:28:20.584Z,2.70
2022-10-04T13:30:49.815Z,2.63
2022-10-04T13:33:26.543Z,2.77
2022-10-04T13:35:58.734Z,2.90
2022-10-04T13:38:35.814Z,2.60
2022-10-04T13:41:16.691Z,2.33
2022-10-04T13:43:55.805Z,2.50
2022-10-04T13:46:28.348Z,3.17
2022-10-04T13:49:02.221Z,1.90
2022-10-04T13:51:39.756Z,2.30
2022-10-04T13:54:32.486Z,1.77
2022-10-04T13:57:06.807Z,2.00
2022-10-04T13:59:41.839Z,2.57
2022-10-04T14:02:30.940Z,2.73
2022-10-04T14:05:19.873Z,3.17
2022-10-04T14:08:08.212Z,1.83
2022-10-04T14:10:45.347Z,2.33
2022-10-04T14:13:43.255Z,2.50
2022-10-04T14:16:34.428Z,2.60
2022-10-04T14:19:15.227Z,2.10
2022-10-04T14:21:59.992Z,2.10
2022-10-04T14:24:54.799Z,2.07
2022-10-04T14:27:40.365Z,2.50
2022-10-04T14:30:17.306Z,2.00
2022-10-04T14:33:00.036Z,2.03
2022-10-04T14:35:30.948Z,2.23
2022-10-04T14:38:12.696Z,1.97
2022-10-04T14:40:52.814Z,2.47
2022-10-04T14:43:36.448Z,2.00
2022-10-04T14:46:14.546Z,2.00
2022-10-04T14:48:48.166Z,1.83
2022-10-04T14:51:23.143Z,1.63
2022-10-04T14:53:55.898Z,2.27
2022-10-04T14:56:30.308Z,2.10
2022-10-04T14:59:04.939Z,2.20
2022-10-04T15:01:34.627Z,2.83
2022-10-04T15:04:11.584Z,1.87
2022-10-04T15:06:43.430Z,1.87
2022-10-04T15:09:30.078Z,2.00
2022-10-04T15:12:25.482Z,1.70
2022-10-04T15:15:05.275Z,2.30
2022-10-04T15:17:38.182Z,2.17
2022-10-04T15:20:08.105Z,2.17
2022-10-04T15:22:41.741Z,2.60
2022-10-04T15:25:24.795Z,4.03
2022-10-04T15:27:55.299Z,2.33
2022-10-04T15:30:25.835Z,2.90
2022-10-04T15:33:09.186Z,2.20
2022-10-04T15:35:39.679Z,2.23
2022-10-04T15:38:15.928Z,2.70
2022-10-04T15:40:49.680Z,3.10
2022-10-04T15:43:23.571Z,2.43
2022-10-04T15:46:03.595Z,2.50
2022-10-04T15:48:47.996Z,3.10
2022-10-04T15:51:18.990Z,3.50
2022-10-04T15:54:13.491Z,3.30
2022-10-04T15:56:48.016Z,3.10
2022-10-04T15:59:22.029Z,3.60
2022-10-04T16:02:03.698Z,4.10
2022-10-04T16:04:38.181Z,2.50
2022-10-04T16:07:14.527Z,3.83
2022-10-04T16:09:46.403Z,2.80
2022-10-04T16:12:23.988Z,4.30
2022-10-04T16:14:58.785Z,4.13
2022-10-04T16:17:36.266Z,4.47
2022-10-04T16:20:20.054Z,3.50
2022-10-04T16:23:02.544Z,5.17
2022-10-04T16:25:37.670Z,4.00
2022-10-04T16:28:08.085Z,4.30
2022-10-04T16:30:40.601Z,4.30
2022-10-04T16:33:20.996Z,5.20
2022-10-04T16:35:51.100Z,5.33
2022-10-04T16:38:24.466Z,6.27
2022-10-04T16:41:07.581Z,4.80
2022-10-04T16:43:36.124Z,3.83
2022-10-04T16:46:11.509Z,4.50
2022-10-04T16:48:47.182Z,4.47
2022-10-04T16:51:24.162Z,3.80
2022-10-04T16:53:54.148Z,4.50
2022-10-04T16:56:23.649Z,5.17
2022-10-04T16:58:53.191Z,5.40
2022-10-04T17:01:44.933Z,6.00
2022-10-04T17:04:25.210Z,5.73
2022-10-04T17:06:57.573Z,5.53
2022-10-04T17:09:28.650Z,3.70
2022-10-04T17:12:07.833Z,5.63
2022-10-04T17:14:46.328Z,4.73
2022-10-04T17:17:17.947Z,5.87
2022-10-04T17:19:52.475Z,8.13
2022-10-04T17:22:24.362Z,5.80
2022-10-04T17:24:56.973Z,6.40
2022-10-04T17:27:36.455Z,4.57
2022-10-04T17:30:12.717Z,14.70
2022-10-04T17:32:45.725Z,8.97
2022-10-04T17:35:19.233Z,7.07
2022-10-04T17:37:49.023Z,8.73
2022-10-04T17:40:29.329Z,7.73
2022-10-04T17:43:01.335Z,6.40
2022-10-04T17:45:35.967Z,6.93
2022-10-04T17:48:23.251Z,8.03
2022-10-04T17:51:13.649Z,8.67
2022-10-04T17:54:00.902Z,10.97
2022-10-04T17:56:31.753Z,10.40
2022-10-04T17:59:06.111Z,11.23
2022-10-04T18:01:36.352Z,10.10
2022-10-04T18:04:08.965Z,9.60
2022-10-04T18:06:39.399Z,10.20
2022-10-04T18:09:15.014Z,10.10
2022-10-04T18:11:47.359Z,11.27
2022-10-04T18:14:23.885Z,10.20
2022-10-04T18:16:54.650Z,11.40
2022-10-04T18:19:38.175Z,11.80
2022-10-04T18:22:12.685Z,10.20
2022-10-04T18:24:40.230Z,9.70
2022-10-04T18:30:13.418Z,8.03
2022-10-04T18:32:47.266Z,7.87
2022-10-04T18:35:26.588Z,7.30
2022-10-04T18:37:55.291Z,7.50
2022-10-04T18:40:24.313Z,7.17
2022-10-04T18:42:53.571Z,6.47
2022-10-04T18:45:25.894Z,9.07
2022-10-04T18:47:55.489Z,6.77
2022-10-04T18:50:25.257Z,6.97
2022-10-04T18:52:59.940Z,6.20
2022-10-04T18:55:31.370Z,6.70
2022-10-04T18:58:23.770Z,7.93
2022-10-04T19:01:15.864Z,7.07
2022-10-04T19:03:48.037Z,7.23
2022-10-04T19:06:17.761Z,7.50
2022-10-04T19:08:49.609Z,7.50
2022-10-04T19:11:20.281Z,7.60
2022-10-04T19:13:52.741Z,8.27
2022-10-04T19:16:27.832Z,6.63
2022-10-04T19:19:02.633Z,7.57
2022-10-04T19:21:37.965Z,7.37
2022-10-04T19:24:11.033Z,6.33
2022-10-04T19:26:40.742Z,5.80
2022-10-04T19:29:13.633Z,6.70
2022-10-04T19:31:45.328Z,7.40
2022-10-04T19:34:17.985Z,6.73
2022-10-04T19:36:49.133Z,7.47
2022-10-04T19:39:29.517Z,6.87
2022-10-04T19:41:58.946Z,7.60
2022-10-04T19:44:37.882Z,6.63
2022-10-04T19:47:10.389Z,7.30
2022-10-04T19:49:44.270Z,6.93
2022-10-04T19:52:15.933Z,6.77
2022-10-04T19:54:43.413Z,7.20
2022-10-04T19:57:12.900Z,8.30
2022-10-04T19:59:41.589Z,7.17
2022-10-04T20:02:09.631Z,7.43
2022-10-04T20:04:38.615Z,6.83
2022-10-04T20:07:11.472Z,8.80
2022-10-04T20:09:51.594Z,8.10
2022-10-04T20:12:31.631Z,7.63
2022-10-04T20:15:31.228Z,7.17
2022-10-04T20:17:58.905Z,6.93
2022-10-04T20:20:45.713Z,6.23
2022-10-04T20:23:34.643Z,7.87
2022-10-04T20:26:03.869Z,8.80
2022-10-04T20:28:40.004Z,7.53
2022-10-04T20:31:09.926Z,7.10
2022-10-04T20:33:45.369Z,8.30
2022-10-04T20:36:15.269Z,8.33
2022-10-04T20:38:51.692Z,8.93
2022-10-04T20:41:51.786Z,8.60
2022-10-04T20:44:34.242Z,8.00
2022-10-04T20:47:03.330Z,7.33
2022-10-04T20:49:30.953Z,8.70
2022-10-04T20:51:58.674Z,9.00
2022-10-04T20:54:27.820Z,9.87
2022-10-04T20:56:56.222Z,9.30
2022-10-04T20:59:23.904Z,8.50
2022-10-04T21:02:02.630Z,11.13
2022-10-04T21:04:32.723Z,7.50
2022-10-04T21:07:01.220Z,8.20
2022-10-04T21:09:31.014Z,6.80
2022-10-04T21:11:59.234Z,7.80
2022-10-04T21:14:27.351Z,6.00
2022-10-04T21:16:58.703Z,6.80
2022-10-04T21:19:48.025Z,7.03
2022-10-04T21:22:30.749Z,6.10
2022-10-04T21:25:00.275Z,5.90
2022-10-04T21:27:29.017Z,7.23
2022-10-04T21:29:56.969Z,5.67
2022-10-04T21:32:25.452Z,6.07
2022-10-04T21:34:54.392Z,6.10
2022-10-04T21:37:22.446Z,5.70
2022-10-04T21:39:50.639Z,6.17
2022-10-04T21:42:19.701Z,6.10
2022-10-04T21:44:47.331Z,5.50
2022-10-04T21:47:14.968Z,6.17
2022-10-04T21:49:42.472Z,5.80
2022-10-04T21:52:10.558Z,5.67
2022-10-04T21:54:38.077Z,5.80
2022-10-04T21:57:05.657Z,5.53
2022-10-04T21:59:34.557Z,5.37
2022-10-04T22:02:02.181Z,5.13
2022-10-04T22:04:29.725Z,5.20
2022-10-04T22:06:57.649Z,5.50
2022-10-04T22:09:25.142Z,5.77
2022-10-04T22:11:53.092Z,10.17
2022-10-04T22:14:20.855Z,5.70
2022-10-04T22:16:50.394Z,5.60
2022-10-04T22:19:18.417Z,5.80
2022-10-04T22:21:45.950Z,6.40
2022-10-04T22:24:17.195Z,6.30
2022-10-04T22:26:45.199Z,5.00
2022-10-04T22:29:14.199Z,19.40
2022-10-04T22:31:44.113Z,9.87
2022-10-04T22:34:15.676Z,6.00
2022-10-04T22:36:44.911Z,8.60
2022-10-04T22:39:15.163Z,6.97
2022-10-04T22:41:43.918Z,6.63
2022-10-04T22:44:13.477Z,22.07
2022-10-04T22:46:43.642Z,6.57
2022-10-04T22:49:12.439Z,6.50
2022-10-04T22:51:40.678Z,5.77
2022-10-04T22:54:12.758Z,6.10
2022-10-04T22:56:41.202Z,5.30
2022-10-04T22:59:10.457Z,5.43
2022-10-04T23:01:38.521Z,5.23
2022-10-04T23:04:12.797Z,5.30
2022-10-04T23:06:40.861Z,5.70
2022-10-04T23:09:08.369Z,5.23
2022-10-04T23:11:37.504Z,5.37
2022-10-04T23:14:05.929Z,5.80
2022-10-04T23:16:33.756Z,5.20
2022-10-04T23:19:03.321Z,6.10
2022-10-04T23:21:32.940Z,5.33
2022-10-04T23:24:02.537Z,5.20
2022-10-04T23:26:35.054Z,5.07
2022-10-04T23:29:06.895Z,5.70
2022-10-04T23:31:36.804Z,5.40
2022-10-04T23:34:14.342Z,6.23
2022-10-04T23:36:44.764Z,6.63
2022-10-04T23:39:14.791Z,5.70
2022-10-04T23:41:42.874Z,6.30
2022-10-04T23:44:13.650Z,6.77
2022-10-04T23:46:41.284Z,5.60
2022-10-04T23:49:10.104Z,5.97
2022-10-04T23:51:37.651Z,6.53
2022-10-04T23:54:06.984Z,6.47
2022-10-04T23:56:34.803Z,5.80
2022-10-04T23:59:02.291Z,5.67
